createdAt,value
2016-11-06T00:00:33.413Z,0
2016-11-06T00:01:14.975Z,0
2016-11-06T00:03:51.163Z,0
2016-11-06T00:04:32.833Z,0
2016-11-06T00:05:14.532Z,0
2016-11-06T00:05:56.225Z,0
2016-11-06T00:06:38.014Z,0
2016-11-06T00:07:19.379Z,0
2016-11-06T00:08:00.987Z,0
2016-11-06T00:08:42.792Z,0
2016-11-06T00:09:24.484Z,0
2016-11-06T00:10:06.069Z,0
2016-11-06T00:10:47.759Z,0
2016-11-06T00:11:29.382Z,0
2016-11-06T00:12:11.040Z,0
2016-11-06T00:12:52.572Z,0
2016-11-06T00:13:34.303Z,0
2016-11-06T00:14:15.965Z,0
2016-11-06T00:14:57.521Z,0
2016-11-06T00:15:39.214Z,0
2016-11-06T00:16:20.914Z,0
2016-11-06T00:17:02.522Z,0
2016-11-06T00:17:44.308Z,0
2016-11-06T00:18:25.952Z,0
2016-11-06T00:19:07.715Z,0
2016-11-06T00:19:49.386Z,0
2016-11-06T00:20:31.163Z,0
2016-11-06T00:21:12.899Z,0
2016-11-06T00:23:33.708Z,0
2016-11-06T00:24:15.415Z,0
2016-11-06T00:24:57.030Z,0
2016-11-06T00:25:38.698Z,0
2016-11-06T00:26:20.334Z,0
2016-11-06T00:27:02.016Z,0
2016-11-06T00:27:43.756Z,0
2016-11-06T00:28:25.454Z,0
2016-11-06T00:29:07.146Z,0
2016-11-06T00:29:48.833Z,0
2016-11-06T00:32:09.485Z,0
2016-11-06T00:32:51.306Z,0
2016-11-06T00:33:33.089Z,0
2016-11-06T00:34:14.785Z,0
2016-11-06T00:34:56.385Z,0
2016-11-06T00:35:38.087Z,0
2016-11-06T00:36:19.796Z,0
2016-11-06T00:37:01.435Z,0
2016-11-06T00:37:43.116Z,0
2016-11-06T00:38:24.967Z,0
2016-11-06T00:39:06.706Z,0
2016-11-06T00:39:48.495Z,0
2016-11-06T00:42:09.158Z,0
2016-11-06T00:42:50.861Z,0
2016-11-06T00:43:32.433Z,0
2016-11-06T00:45:47.701Z,0
2016-11-06T00:46:29.371Z,0
2016-11-06T00:47:11.112Z,0
2016-11-06T00:47:52.812Z,0
2016-11-06T00:48:34.535Z,0
2016-11-06T00:49:16.205Z,0
2016-11-06T00:51:52.509Z,0
2016-11-06T00:54:07.905Z,0
2016-11-06T00:54:49.559Z,0
2016-11-06T00:55:31.332Z,0
2016-11-06T00:57:51.983Z,0
2016-11-06T00:58:33.653Z,0
2016-11-06T00:59:15.435Z,0
2016-11-06T00:59:56.960Z,0
2016-11-06T01:02:38.610Z,0
2016-11-06T01:03:20.440Z,0
2016-11-06T01:04:02.266Z,0
2016-11-06T01:04:43.921Z,0
2016-11-06T01:05:25.489Z,0
2016-11-06T01:06:07.079Z,0
2016-11-06T01:06:48.894Z,0
2016-11-06T01:07:30.412Z,0
2016-11-06T01:08:12.012Z,0
2016-11-06T01:12:21.975Z,0
2016-11-06T01:13:03.557Z,0
2016-11-06T01:13:45.069Z,0
2016-11-06T01:14:26.683Z,0
2016-11-06T01:15:08.211Z,0
2016-11-06T01:15:49.810Z,0
2016-11-06T01:16:31.222Z,0
2016-11-06T01:17:12.968Z,0
2016-11-06T01:17:54.607Z,0
2016-11-06T01:18:36.284Z,0
2016-11-06T01:19:17.946Z,0
2016-11-06T01:19:59.720Z,0
2016-11-06T01:20:41.414Z,0
2016-11-06T01:21:22.943Z,0
2016-11-06T01:22:04.710Z,0
2016-11-06T01:22:46.350Z,0
2016-11-06T01:23:28.117Z,0
2016-11-06T01:24:09.891Z,0
2016-11-06T01:26:30.676Z,0
2016-11-06T01:27:12.385Z,0
2016-11-06T01:27:53.907Z,0
2016-11-06T01:28:35.713Z,0
2016-11-06T01:29:17.468Z,0
2016-11-06T01:29:59.235Z,0
2016-11-06T01:30:40.935Z,0
2016-11-06T01:31:22.491Z,0
2016-11-06T01:32:04.303Z,0
2016-11-06T01:34:25.048Z,0
2016-11-06T01:35:06.793Z,0
2016-11-06T01:37:37.930Z,0
2016-11-06T01:38:19.564Z,0
2016-11-06T01:39:01.283Z,0
2016-11-06T01:41:37.798Z,0
2016-11-06T01:42:19.528Z,0
2016-11-06T01:46:24.301Z,0
2016-11-06T01:47:06.047Z,0
2016-11-06T01:47:47.601Z,0
2016-11-06T01:48:29.220Z,0
2016-11-06T01:49:10.643Z,0
2016-11-06T01:49:52.405Z,0
2016-11-06T01:50:34.108Z,0
2016-11-06T01:51:15.870Z,0
2016-11-06T01:51:57.519Z,0
2016-11-06T01:52:39.273Z,0
2016-11-06T01:53:21.044Z,0
2016-11-06T01:54:02.723Z,0
2016-11-06T01:56:33.651Z,0
2016-11-06T01:57:15.572Z,0
2016-11-06T01:57:56.996Z,0
2016-11-06T01:58:38.614Z,0
2016-11-06T01:59:20.133Z,0
2016-11-06T02:00:00.681Z,0
2016-11-06T02:00:41.214Z,0
2016-11-06T02:01:21.753Z,0
2016-11-06T02:02:02.276Z,0
2016-11-06T02:02:42.801Z,0
2016-11-06T02:03:23.332Z,0
2016-11-06T02:04:03.875Z,0
2016-11-06T02:04:44.414Z,0
2016-11-06T02:05:24.958Z,0
2016-11-06T02:06:05.482Z,0
2016-11-06T02:06:46.013Z,0
2016-11-06T02:07:26.544Z,0
2016-11-06T02:08:07.083Z,0
2016-11-06T02:08:47.618Z,0
2016-11-06T02:09:28.148Z,0
2016-11-06T02:10:08.656Z,0
2016-11-06T02:10:49.196Z,0
2016-11-06T02:11:29.744Z,0
2016-11-06T02:12:10.284Z,0
2016-11-06T02:12:50.820Z,0
2016-11-06T02:13:31.342Z,0
2016-11-06T02:14:11.876Z,0
2016-11-06T02:14:52.400Z,0
2016-11-06T02:15:32.942Z,0
2016-11-06T02:16:13.494Z,0
2016-11-06T02:16:54.061Z,0
2016-11-06T02:17:34.654Z,0
2016-11-06T02:18:15.181Z,0
2016-11-06T02:18:55.723Z,0
2016-11-06T02:19:36.261Z,0
2016-11-06T02:20:16.802Z,0
2016-11-06T02:20:57.330Z,0
2016-11-06T02:21:37.870Z,0
2016-11-06T02:22:18.386Z,0
2016-11-06T02:22:58.919Z,0
2016-11-06T02:23:39.459Z,0
2016-11-06T02:24:19.989Z,0
2016-11-06T02:25:00.516Z,0
2016-11-06T02:25:41.040Z,0
2016-11-06T02:26:21.571Z,0
2016-11-06T02:27:02.105Z,0
2016-11-06T02:27:42.643Z,0
2016-11-06T02:28:23.173Z,0
2016-11-06T02:29:03.707Z,0
2016-11-06T02:29:44.241Z,0
2016-11-06T02:30:24.780Z,0
2016-11-06T02:31:05.318Z,0
2016-11-06T02:31:45.860Z,0
2016-11-06T02:32:26.391Z,0
2016-11-06T02:33:06.908Z,0
2016-11-06T02:33:47.440Z,0
2016-11-06T02:34:27.978Z,0
2016-11-06T02:35:08.514Z,0
2016-11-06T02:35:49.050Z,0
2016-11-06T02:36:29.589Z,0
2016-11-06T02:37:10.116Z,0
2016-11-06T02:37:50.630Z,0
2016-11-06T02:38:31.141Z,0
2016-11-06T02:39:11.667Z,0
2016-11-06T02:39:52.196Z,0
2016-11-06T02:40:32.720Z,0
2016-11-06T02:41:13.258Z,0
2016-11-06T02:41:53.903Z,0
2016-11-06T02:42:34.460Z,0
2016-11-06T02:43:14.968Z,0
2016-11-06T02:43:55.488Z,0
2016-11-06T02:44:36.025Z,0
2016-11-06T02:45:16.678Z,0
2016-11-06T02:45:57.215Z,0
2016-11-06T02:46:37.755Z,0
2016-11-06T02:47:18.265Z,0
2016-11-06T02:47:58.800Z,0
2016-11-06T02:48:39.341Z,0
2016-11-06T02:49:19.877Z,0
2016-11-06T02:50:00.421Z,0
2016-11-06T02:50:40.958Z,0
2016-11-06T02:51:21.470Z,0
2016-11-06T02:52:02.012Z,0
2016-11-06T02:52:42.538Z,0
2016-11-06T02:53:23.071Z,0
2016-11-06T02:54:03.612Z,0
2016-11-06T02:54:44.134Z,0
2016-11-06T02:55:24.664Z,0
2016-11-06T02:56:05.198Z,0
2016-11-06T02:56:45.732Z,0
2016-11-06T02:57:26.262Z,0
2016-11-06T02:58:06.784Z,0
2016-11-06T02:58:47.314Z,0
2016-11-06T02:59:27.852Z,0
2016-11-06T03:00:08.384Z,0
2016-11-06T03:00:48.941Z,0
2016-11-06T03:01:29.484Z,0
2016-11-06T03:02:10.030Z,0
2016-11-06T03:02:50.556Z,0
2016-11-06T03:03:31.088Z,0
2016-11-06T03:04:11.702Z,0
2016-11-06T03:04:52.226Z,0
2016-11-06T03:05:32.895Z,0
2016-11-06T03:06:13.427Z,0
2016-11-06T03:06:53.950Z,0
2016-11-06T03:07:34.469Z,0
2016-11-06T03:08:15.000Z,0
2016-11-06T03:08:55.529Z,0
2016-11-06T03:09:36.065Z,0
2016-11-06T03:10:16.588Z,0
2016-11-06T03:10:57.106Z,0
2016-11-06T03:11:37.649Z,0
2016-11-06T03:12:18.188Z,0
2016-11-06T03:12:58.692Z,0
2016-11-06T03:13:39.224Z,0
2016-11-06T03:14:19.747Z,0
2016-11-06T03:15:00.275Z,0
2016-11-06T03:15:40.799Z,0
2016-11-06T03:16:21.354Z,0
2016-11-06T03:17:01.873Z,0
2016-11-06T03:17:42.406Z,0
2016-11-06T03:18:22.931Z,0
2016-11-06T03:19:03.456Z,0
2016-11-06T03:19:43.983Z,0
2016-11-06T03:20:24.499Z,0
2016-11-06T03:21:05.029Z,0
2016-11-06T03:21:45.553Z,0
2016-11-06T03:22:26.076Z,0
2016-11-06T03:23:06.612Z,0
2016-11-06T03:23:47.140Z,0
2016-11-06T03:24:27.652Z,0
2016-11-06T03:25:08.189Z,0
2016-11-06T03:25:48.721Z,0
2016-11-06T03:26:29.246Z,0
2016-11-06T03:27:09.774Z,0
2016-11-06T03:27:50.371Z,0
2016-11-06T03:28:30.909Z,0
2016-11-06T03:29:11.437Z,0
2016-11-06T03:29:52.061Z,0
2016-11-06T03:30:32.602Z,0
2016-11-06T03:31:13.133Z,0
2016-11-06T03:31:53.661Z,0
2016-11-06T03:32:34.172Z,0
2016-11-06T03:33:14.706Z,0
2016-11-06T03:33:55.226Z,0
2016-11-06T03:34:35.756Z,0
2016-11-06T03:35:16.287Z,0
2016-11-06T03:35:56.814Z,0
2016-11-06T03:36:37.335Z,0
2016-11-06T03:37:17.883Z,0
2016-11-06T03:37:58.401Z,0
2016-11-06T03:38:38.944Z,0
2016-11-06T03:39:19.466Z,0
2016-11-06T03:40:00.004Z,0
2016-11-06T03:40:40.523Z,0
2016-11-06T03:41:21.069Z,0
2016-11-06T03:42:01.595Z,0
2016-11-06T03:42:42.127Z,0
2016-11-06T03:43:22.642Z,0
2016-11-06T03:44:03.176Z,0
2016-11-06T03:44:43.711Z,0
2016-11-06T03:45:24.252Z,0
2016-11-06T03:46:04.765Z,0
2016-11-06T03:46:45.292Z,0
2016-11-06T03:47:25.833Z,0
2016-11-06T03:48:06.375Z,0
2016-11-06T03:48:46.906Z,0
2016-11-06T03:49:27.443Z,0
2016-11-06T03:50:07.981Z,0
2016-11-06T03:50:48.518Z,0
2016-11-06T03:51:29.043Z,0
2016-11-06T03:52:09.582Z,0
2016-11-06T03:52:50.108Z,0
2016-11-06T03:53:30.635Z,0
2016-11-06T03:54:11.162Z,0
2016-11-06T03:54:51.694Z,0
2016-11-06T03:55:32.230Z,0
2016-11-06T03:56:12.759Z,0
2016-11-06T03:56:53.299Z,0
2016-11-06T03:57:33.824Z,0
2016-11-06T03:58:14.350Z,0
2016-11-06T03:58:54.893Z,0
2016-11-06T03:59:35.419Z,0
2016-11-06T04:00:15.948Z,0
2016-11-06T04:00:56.454Z,0
2016-11-06T04:01:36.995Z,0
2016-11-06T04:02:17.515Z,0
2016-11-06T04:02:58.061Z,0
2016-11-06T04:03:38.580Z,0
2016-11-06T04:04:19.117Z,0
2016-11-06T04:04:59.635Z,0
2016-11-06T04:05:40.164Z,0
2016-11-06T04:06:20.711Z,0
2016-11-06T04:07:01.223Z,0
2016-11-06T04:07:41.742Z,0
2016-11-06T04:08:22.279Z,0
2016-11-06T04:09:02.812Z,0
2016-11-06T04:09:43.343Z,0
2016-11-06T04:10:23.854Z,0
2016-11-06T04:11:04.402Z,0
2016-11-06T04:11:44.919Z,0
2016-11-06T04:12:25.468Z,0
2016-11-06T04:13:05.996Z,0
2016-11-06T04:13:46.525Z,0
2016-11-06T04:14:27.032Z,0
2016-11-06T04:15:07.589Z,0
2016-11-06T04:15:48.135Z,0
2016-11-06T04:16:28.659Z,0
2016-11-06T04:17:09.219Z,0
2016-11-06T04:17:49.733Z,0
2016-11-06T04:18:30.256Z,0
2016-11-06T04:19:10.792Z,0
2016-11-06T04:19:51.320Z,0
2016-11-06T04:20:31.842Z,0
2016-11-06T04:21:12.370Z,0
2016-11-06T04:21:52.896Z,0
2016-11-06T04:22:33.450Z,0
2016-11-06T04:23:13.984Z,0
2016-11-06T04:23:54.522Z,0
2016-11-06T04:24:35.049Z,0
2016-11-06T04:25:15.583Z,0
2016-11-06T04:25:56.112Z,0
2016-11-06T04:26:36.635Z,0
2016-11-06T04:27:17.181Z,0
2016-11-06T04:27:57.732Z,0
2016-11-06T04:28:38.241Z,0
2016-11-06T04:29:18.770Z,0
2016-11-06T04:29:59.302Z,0
2016-11-06T04:30:39.846Z,0
2016-11-06T04:31:20.366Z,0
2016-11-06T04:32:00.881Z,0
2016-11-06T04:32:41.419Z,0
2016-11-06T04:33:21.950Z,0
2016-11-06T04:34:02.495Z,0
2016-11-06T04:34:43.030Z,0
2016-11-06T04:35:23.546Z,0
2016-11-06T04:36:04.075Z,0
2016-11-06T04:36:44.596Z,0
2016-11-06T04:37:25.129Z,0
2016-11-06T04:38:05.634Z,0
2016-11-06T04:38:46.171Z,0
2016-11-06T04:39:26.707Z,0
2016-11-06T04:40:07.235Z,0
2016-11-06T04:40:47.740Z,0
2016-11-06T04:41:28.275Z,0
2016-11-06T04:42:08.806Z,0
2016-11-06T04:42:49.333Z,0
2016-11-06T04:43:29.857Z,0
2016-11-06T04:44:10.393Z,0
2016-11-06T04:44:50.933Z,0
2016-11-06T04:45:31.464Z,0
2016-11-06T04:46:12.007Z,0
2016-11-06T04:46:52.538Z,0
2016-11-06T04:47:33.057Z,0
2016-11-06T04:48:13.589Z,0
2016-11-06T04:48:54.117Z,0
2016-11-06T04:49:34.659Z,0
2016-11-06T04:50:15.178Z,0
2016-11-06T04:50:55.709Z,0
2016-11-06T04:51:36.241Z,0
2016-11-06T04:52:16.766Z,0
2016-11-06T04:52:57.290Z,0
2016-11-06T04:53:37.795Z,0
2016-11-06T04:54:18.319Z,0
2016-11-06T04:54:58.861Z,0
2016-11-06T04:55:39.382Z,0
2016-11-06T04:56:19.911Z,0
2016-11-06T04:57:00.439Z,0
2016-11-06T04:57:40.968Z,0
2016-11-06T04:58:21.497Z,0
2016-11-06T04:59:02.032Z,0
2016-11-06T04:59:42.563Z,0
2016-11-06T05:00:23.098Z,0
2016-11-06T05:01:03.621Z,0
2016-11-06T05:01:44.143Z,0
2016-11-06T05:02:24.674Z,0
2016-11-06T05:03:05.190Z,0
2016-11-06T05:03:45.714Z,0
2016-11-06T05:04:26.259Z,0
2016-11-06T05:05:06.781Z,0
2016-11-06T05:05:47.298Z,0
2016-11-06T05:06:27.839Z,0
2016-11-06T05:07:08.384Z,0
2016-11-06T05:07:48.924Z,0
2016-11-06T05:08:29.437Z,0
2016-11-06T05:09:09.968Z,0
2016-11-06T05:09:50.502Z,0
2016-11-06T05:10:31.038Z,0
2016-11-06T05:11:11.585Z,0
2016-11-06T05:11:52.117Z,0
2016-11-06T05:12:32.649Z,0
2016-11-06T05:13:13.180Z,0
2016-11-06T05:13:53.689Z,0
2016-11-06T05:14:34.229Z,0
2016-11-06T05:15:14.752Z,0
2016-11-06T05:15:55.278Z,0
2016-11-06T05:16:35.789Z,0
2016-11-06T05:17:16.312Z,0
2016-11-06T05:17:56.840Z,0
2016-11-06T05:18:37.363Z,0
2016-11-06T05:19:17.874Z,0
2016-11-06T05:19:58.400Z,0
2016-11-06T05:20:38.932Z,0
2016-11-06T05:21:19.443Z,0
2016-11-06T05:21:59.971Z,0
2016-11-06T05:22:40.501Z,0
2016-11-06T05:23:21.022Z,0
2016-11-06T05:24:01.542Z,0
2016-11-06T05:24:42.074Z,0
2016-11-06T05:25:22.605Z,0
2016-11-06T05:26:03.129Z,0
2016-11-06T05:26:43.638Z,0
2016-11-06T05:27:24.154Z,0
2016-11-06T05:28:04.684Z,0
2016-11-06T05:28:45.182Z,0
2016-11-06T05:29:25.703Z,0
2016-11-06T05:30:06.221Z,0
2016-11-06T05:30:46.752Z,0
2016-11-06T05:31:27.289Z,0
2016-11-06T05:32:07.824Z,0
2016-11-06T05:32:48.349Z,0
2016-11-06T05:33:28.865Z,0
2016-11-06T05:34:09.401Z,0
2016-11-06T05:34:49.923Z,0
2016-11-06T05:35:30.457Z,0
2016-11-06T05:36:10.984Z,0
2016-11-06T05:36:51.513Z,0
2016-11-06T05:37:32.043Z,0
2016-11-06T05:38:12.591Z,0
2016-11-06T05:38:53.119Z,0
2016-11-06T05:39:33.634Z,0
2016-11-06T05:40:14.166Z,0
2016-11-06T05:40:54.687Z,0
2016-11-06T05:41:35.208Z,0
2016-11-06T05:42:15.730Z,0
2016-11-06T05:42:56.256Z,0
2016-11-06T05:43:36.794Z,0
2016-11-06T05:44:17.328Z,0
2016-11-06T05:44:57.858Z,0
2016-11-06T05:45:38.366Z,0
2016-11-06T05:46:18.887Z,0
2016-11-06T05:46:59.420Z,0
2016-11-06T05:47:39.943Z,0
2016-11-06T05:48:20.460Z,0
2016-11-06T05:49:00.991Z,0
2016-11-06T05:49:41.509Z,0
2016-11-06T05:50:22.018Z,0
2016-11-06T05:51:02.558Z,0
2016-11-06T05:51:43.085Z,0
2016-11-06T05:52:23.622Z,0
2016-11-06T05:53:04.134Z,0
2016-11-06T05:53:44.663Z,0
2016-11-06T05:54:25.184Z,0
2016-11-06T05:55:05.693Z,0
2016-11-06T05:55:46.236Z,0
2016-11-06T05:56:26.760Z,0
2016-11-06T05:57:07.297Z,0
2016-11-06T05:57:47.814Z,0
2016-11-06T05:58:28.322Z,0
2016-11-06T05:59:08.843Z,0
2016-11-06T05:59:49.360Z,0
2016-11-06T06:00:29.869Z,0
2016-11-06T06:01:10.400Z,0
2016-11-06T06:01:50.940Z,0
2016-11-06T06:02:31.488Z,0
2016-11-06T06:03:12.015Z,0
2016-11-06T06:03:52.530Z,0
2016-11-06T06:04:33.043Z,0
2016-11-06T06:05:13.566Z,0
2016-11-06T06:05:54.067Z,0
2016-11-06T06:06:34.594Z,0
2016-11-06T06:07:15.126Z,0
2016-11-06T06:07:55.625Z,0
2016-11-06T06:08:36.146Z,0
2016-11-06T06:09:16.665Z,0
2016-11-06T06:09:57.174Z,0
2016-11-06T06:10:37.694Z,0
2016-11-06T06:11:18.207Z,0
2016-11-06T06:11:58.752Z,0
2016-11-06T06:12:39.266Z,0
2016-11-06T06:13:19.792Z,0
2016-11-06T06:14:00.317Z,0
2016-11-06T06:14:40.836Z,0
2016-11-06T06:15:21.365Z,0
2016-11-06T06:16:01.893Z,0
2016-11-06T06:16:42.418Z,0
2016-11-06T06:17:22.947Z,0
2016-11-06T06:18:03.466Z,0
2016-11-06T06:18:43.993Z,0
2016-11-06T06:19:24.511Z,0
2016-11-06T06:20:05.032Z,0
2016-11-06T06:20:45.543Z,0
2016-11-06T06:21:26.077Z,0
2016-11-06T06:22:06.588Z,0
2016-11-06T06:22:47.131Z,0
2016-11-06T06:23:27.664Z,0
2016-11-06T06:24:08.191Z,0
2016-11-06T06:24:48.704Z,0
2016-11-06T06:25:29.231Z,0
2016-11-06T06:26:09.741Z,0
2016-11-06T06:26:50.253Z,0
2016-11-06T06:27:30.774Z,0
2016-11-06T06:28:11.310Z,0
2016-11-06T06:28:51.839Z,0
2016-11-06T06:29:32.374Z,0
2016-11-06T06:30:12.887Z,0
2016-11-06T06:30:53.404Z,5
2016-11-06T06:31:33.942Z,5
2016-11-06T06:32:14.471Z,5
2016-11-06T06:32:54.997Z,5
2016-11-06T06:33:35.515Z,5
2016-11-06T06:34:16.043Z,5
2016-11-06T06:34:56.564Z,5
2016-11-06T06:35:37.081Z,5
2016-11-06T06:36:17.592Z,5
2016-11-06T06:36:58.107Z,5
2016-11-06T06:37:38.624Z,5
2016-11-06T06:38:19.155Z,5
2016-11-06T06:38:59.694Z,5
2016-11-06T06:39:40.226Z,10
2016-11-06T06:40:20.755Z,10
2016-11-06T06:41:01.269Z,10
2016-11-06T06:41:41.775Z,10
2016-11-06T06:42:22.280Z,10
2016-11-06T06:43:02.799Z,10
2016-11-06T06:43:43.329Z,10
2016-11-06T06:44:23.876Z,10
2016-11-06T06:45:04.404Z,10
2016-11-06T06:45:44.927Z,10
2016-11-06T06:46:25.465Z,10
2016-11-06T06:47:06.005Z,10
2016-11-06T06:47:46.541Z,10
2016-11-06T06:48:27.079Z,10
2016-11-06T06:49:07.578Z,15
2016-11-06T06:49:48.089Z,15
2016-11-06T06:50:28.615Z,15
2016-11-06T06:51:09.140Z,15
2016-11-06T06:51:49.662Z,15
2016-11-06T06:52:30.206Z,15
2016-11-06T06:53:10.720Z,15
2016-11-06T06:53:51.246Z,20
2016-11-06T06:54:31.760Z,20
2016-11-06T06:55:12.283Z,20
2016-11-06T06:55:52.806Z,25
2016-11-06T06:56:33.327Z,25
2016-11-06T06:57:13.857Z,30
2016-11-06T06:57:54.384Z,30
2016-11-06T06:58:34.920Z,35
2016-11-06T06:59:15.446Z,35
2016-11-06T06:59:55.973Z,35
2016-11-06T07:00:36.525Z,30
2016-11-06T07:01:17.055Z,35
2016-11-06T07:01:57.581Z,35
2016-11-06T07:02:38.098Z,35
2016-11-06T07:03:18.624Z,35
2016-11-06T07:03:59.156Z,30
2016-11-06T07:04:39.701Z,30
2016-11-06T07:05:20.215Z,30
2016-11-06T07:06:00.733Z,30
2016-11-06T07:06:41.265Z,35
2016-11-06T07:07:21.800Z,45
2016-11-06T07:08:02.336Z,50
2016-11-06T07:08:42.857Z,50
2016-11-06T07:09:23.380Z,55
2016-11-06T07:10:03.914Z,55
2016-11-06T07:10:44.446Z,55
2016-11-06T07:11:24.986Z,60
2016-11-06T07:12:05.513Z,55
2016-11-06T07:12:46.042Z,60
2016-11-06T07:13:26.574Z,65
2016-11-06T07:14:07.118Z,65
2016-11-06T07:14:47.647Z,60
2016-11-06T07:15:28.181Z,65
2016-11-06T07:16:08.719Z,65
2016-11-06T07:16:49.236Z,70
2016-11-06T07:17:29.776Z,75
2016-11-06T07:18:10.315Z,75
2016-11-06T07:18:50.846Z,75
2016-11-06T07:19:31.380Z,70
2016-11-06T07:20:11.935Z,70
2016-11-06T07:20:52.687Z,75
2016-11-06T07:21:33.217Z,75
2016-11-06T07:22:13.732Z,65
2016-11-06T07:22:54.298Z,55
2016-11-06T07:23:34.834Z,55
2016-11-06T07:24:15.561Z,55
2016-11-06T07:24:56.207Z,55
2016-11-06T07:25:36.737Z,60
2016-11-06T07:26:17.262Z,65
2016-11-06T07:26:57.820Z,70
2016-11-06T07:27:38.418Z,75
2016-11-06T07:28:18.934Z,75
2016-11-06T07:28:59.586Z,75
2016-11-06T07:29:40.129Z,75
2016-11-06T07:30:20.718Z,75
2016-11-06T07:31:01.252Z,70
2016-11-06T07:31:41.866Z,65
2016-11-06T07:32:22.404Z,65
2016-11-06T07:33:03.023Z,60
2016-11-06T07:33:43.584Z,60
2016-11-06T07:34:24.127Z,50
2016-11-06T07:35:04.710Z,45
2016-11-06T07:35:45.255Z,40
2016-11-06T07:36:25.825Z,40
2016-11-06T07:37:06.370Z,40
2016-11-06T07:37:46.908Z,45
2016-11-06T07:38:27.458Z,45
2016-11-06T07:39:07.994Z,45
2016-11-06T07:39:48.524Z,45
2016-11-06T07:40:29.059Z,45
2016-11-06T07:41:09.579Z,45
2016-11-06T07:41:50.347Z,45
2016-11-06T07:42:30.975Z,40
2016-11-06T07:43:11.555Z,40
2016-11-06T07:43:52.076Z,40
2016-11-06T07:44:32.616Z,45
2016-11-06T07:45:13.151Z,50
2016-11-06T07:45:53.724Z,50
2016-11-06T07:46:34.268Z,50
2016-11-06T07:47:14.814Z,55
2016-11-06T07:47:55.358Z,55
2016-11-06T07:48:35.876Z,60
2016-11-06T07:49:16.380Z,65
2016-11-06T07:49:56.922Z,60
2016-11-06T07:50:37.450Z,65
2016-11-06T07:51:17.963Z,70
2016-11-06T07:51:58.473Z,70
2016-11-06T07:52:39.009Z,70
2016-11-06T07:53:19.549Z,75
2016-11-06T07:54:00.067Z,70
2016-11-06T07:54:40.612Z,60
2016-11-06T07:55:21.150Z,50
2016-11-06T07:56:01.674Z,45
2016-11-06T07:56:42.215Z,45
2016-11-06T07:57:22.745Z,45
2016-11-06T07:58:03.270Z,45
2016-11-06T07:58:43.798Z,50
2016-11-06T07:59:24.329Z,50
2016-11-06T08:00:04.863Z,50
2016-11-06T08:00:45.406Z,45
2016-11-06T08:01:25.914Z,50
2016-11-06T08:02:06.428Z,55
2016-11-06T08:02:46.970Z,55
2016-11-06T08:03:27.491Z,50
2016-11-06T08:04:08.017Z,50
2016-11-06T08:04:48.540Z,50
2016-11-06T08:05:29.070Z,45
2016-11-06T08:06:09.595Z,45
2016-11-06T08:06:50.129Z,45
2016-11-06T08:07:30.665Z,45
2016-11-06T08:08:11.181Z,50
2016-11-06T08:08:51.719Z,50
2016-11-06T08:09:32.231Z,50
2016-11-06T08:10:12.749Z,50
2016-11-06T08:10:53.279Z,50
2016-11-06T08:11:33.799Z,50
2016-11-06T08:12:14.302Z,45
2016-11-06T08:12:54.818Z,50
2016-11-06T08:13:35.338Z,50
2016-11-06T08:14:15.852Z,45
2016-11-06T08:14:56.375Z,40
2016-11-06T08:15:36.914Z,40
2016-11-06T08:16:17.435Z,40
2016-11-06T08:16:57.953Z,40
2016-11-06T08:17:38.488Z,40
2016-11-06T08:18:19.031Z,35
2016-11-06T08:18:59.565Z,35
2016-11-06T08:19:40.095Z,40
2016-11-06T08:20:20.596Z,45
2016-11-06T08:21:01.110Z,50
2016-11-06T08:21:41.638Z,55
2016-11-06T08:22:22.169Z,60
2016-11-06T08:23:02.684Z,65
2016-11-06T08:23:43.245Z,65
2016-11-06T08:24:23.778Z,65
2016-11-06T08:25:04.312Z,60
2016-11-06T08:25:44.843Z,65
2016-11-06T08:26:25.364Z,80
2016-11-06T08:27:05.895Z,90
2016-11-06T08:27:46.414Z,100
2016-11-06T08:28:26.935Z,105
2016-11-06T08:29:07.441Z,110
2016-11-06T08:29:47.968Z,100
2016-11-06T08:30:28.501Z,100
2016-11-06T08:31:09.037Z,95
2016-11-06T08:31:49.578Z,85
2016-11-06T08:32:30.095Z,85
2016-11-06T08:33:10.619Z,90
2016-11-06T08:33:51.145Z,90
2016-11-06T08:34:31.662Z,90
2016-11-06T08:35:12.170Z,90
2016-11-06T08:35:52.707Z,95
2016-11-06T08:36:33.234Z,105
2016-11-06T08:37:13.758Z,110
2016-11-06T08:37:54.275Z,115
2016-11-06T08:38:34.787Z,125
2016-11-06T08:39:15.326Z,130
2016-11-06T08:39:55.842Z,135
2016-11-06T08:40:36.357Z,140
2016-11-06T08:41:16.882Z,130
2016-11-06T08:41:57.397Z,135
2016-11-06T08:42:37.926Z,170
2016-11-06T08:43:18.459Z,200
2016-11-06T08:43:58.983Z,230
2016-11-06T08:44:39.496Z,275
2016-11-06T08:45:20.016Z,225
2016-11-06T08:46:00.530Z,235
2016-11-06T08:46:41.048Z,245
2016-11-06T08:47:21.578Z,255
2016-11-06T08:48:02.078Z,350
2016-11-06T08:48:42.606Z,280
2016-11-06T08:49:23.119Z,270
2016-11-06T08:50:03.632Z,240
2016-11-06T08:50:44.156Z,295
2016-11-06T08:51:24.680Z,345
2016-11-06T08:52:05.164Z,165
2016-11-06T08:52:45.890Z,155
2016-11-06T08:55:20.749Z,180
2016-11-06T08:56:01.282Z,185
2016-11-06T08:56:41.806Z,230
2016-11-06T08:57:22.308Z,195
2016-11-06T08:58:02.831Z,155
2016-11-06T08:58:43.355Z,145
2016-11-06T08:59:23.872Z,140
2016-11-06T09:00:04.388Z,145
2016-11-06T09:00:44.913Z,150
2016-11-06T09:01:25.448Z,140
2016-11-06T09:02:05.970Z,140
2016-11-06T09:02:46.513Z,145
2016-11-06T09:03:27.023Z,145
2016-11-06T09:04:07.536Z,145
2016-11-06T09:04:48.061Z,160
2016-11-06T09:05:28.598Z,180
2016-11-06T09:06:09.136Z,195
2016-11-06T09:06:49.651Z,220
2016-11-06T09:07:30.171Z,245
2016-11-06T09:08:10.685Z,270
2016-11-06T09:08:51.191Z,270
2016-11-06T09:09:31.696Z,225
2016-11-06T09:10:12.213Z,160
2016-11-06T09:10:52.701Z,165
2016-11-06T09:11:33.218Z,130
2016-11-06T09:12:13.725Z,145
2016-11-06T09:12:54.263Z,165
2016-11-06T09:13:34.782Z,160
2016-11-06T09:14:15.307Z,150
2016-11-06T09:14:55.840Z,145
2016-11-06T09:15:36.332Z,145
2016-11-06T09:16:16.851Z,150
2016-11-06T09:16:57.359Z,180
2016-11-06T09:17:37.869Z,230
2016-11-06T09:18:18.409Z,310
2016-11-06T09:18:58.922Z,340
2016-11-06T09:19:39.437Z,320
2016-11-06T09:20:19.964Z,315
2016-11-06T09:21:00.468Z,345
2016-11-06T09:21:40.986Z,405
2016-11-06T09:22:21.519Z,400
2016-11-06T09:23:02.034Z,235
2016-11-06T09:23:42.558Z,220
2016-11-06T09:24:23.078Z,200
2016-11-06T09:25:03.604Z,165
2016-11-06T09:25:44.133Z,150
2016-11-06T09:26:24.663Z,300
2016-11-06T09:27:05.188Z,130
2016-11-06T09:27:45.703Z,125
2016-11-06T09:28:26.223Z,135
2016-11-06T09:29:06.735Z,135
2016-11-06T09:29:47.266Z,120
2016-11-06T09:30:27.767Z,120
2016-11-06T09:31:08.295Z,120
2016-11-06T09:31:48.811Z,115
2016-11-06T09:32:29.342Z,115
2016-11-06T09:33:09.871Z,115
2016-11-06T09:33:50.388Z,130
2016-11-06T09:34:30.918Z,160
2016-11-06T09:35:11.425Z,180
2016-11-06T09:35:51.916Z,175
2016-11-06T09:36:32.430Z,175
2016-11-06T09:37:12.960Z,170
2016-11-06T09:37:53.483Z,155
2016-11-06T09:38:34.014Z,145
2016-11-06T09:39:14.531Z,140
2016-11-06T09:39:55.043Z,125
2016-11-06T09:40:35.577Z,115
2016-11-06T09:41:16.084Z,100
2016-11-06T09:41:56.597Z,90
2016-11-06T09:42:37.129Z,75
2016-11-06T09:43:17.664Z,65
2016-11-06T09:43:58.185Z,60
2016-11-06T09:44:38.707Z,70
2016-11-06T09:45:19.219Z,75
2016-11-06T09:45:59.745Z,75
2016-11-06T09:46:40.275Z,75
2016-11-06T09:47:20.796Z,80
2016-11-06T09:48:01.304Z,75
2016-11-06T09:48:41.812Z,75
2016-11-06T09:49:22.320Z,65
2016-11-06T09:50:02.847Z,60
2016-11-06T09:50:43.392Z,60
2016-11-06T09:51:23.902Z,60
2016-11-06T09:52:04.423Z,60
2016-11-06T09:52:44.969Z,70
2016-11-06T09:53:25.500Z,70
2016-11-06T09:54:06.029Z,70
2016-11-06T09:54:46.543Z,70
2016-11-06T09:55:27.060Z,75
2016-11-06T09:56:07.592Z,75
2016-11-06T09:56:48.099Z,70
2016-11-06T09:57:28.627Z,70
2016-11-06T09:58:09.138Z,70
2016-11-06T09:58:49.668Z,65
2016-11-06T09:59:30.194Z,70
2016-11-06T10:00:10.721Z,70
2016-11-06T10:00:51.247Z,70
2016-11-06T10:01:31.777Z,70
2016-11-06T10:02:12.303Z,70
2016-11-06T10:02:52.832Z,60
2016-11-06T10:03:33.329Z,70
2016-11-06T10:04:13.849Z,70
2016-11-06T10:04:54.371Z,70
2016-11-06T10:05:34.888Z,65
2016-11-06T10:06:15.407Z,60
2016-11-06T10:06:55.927Z,65
2016-11-06T10:07:36.446Z,70
2016-11-06T10:08:16.963Z,65
2016-11-06T10:08:57.473Z,65
2016-11-06T10:09:38.027Z,80
2016-11-06T10:10:18.563Z,85
2016-11-06T10:10:59.088Z,80
2016-11-06T10:11:39.603Z,75
2016-11-06T10:12:20.142Z,75
2016-11-06T10:13:00.650Z,70
2016-11-06T10:13:41.170Z,65
2016-11-06T10:14:21.724Z,70
2016-11-06T10:15:02.254Z,70
2016-11-06T10:15:42.802Z,75
2016-11-06T10:16:23.342Z,70
2016-11-06T10:17:03.876Z,70
2016-11-06T10:17:44.396Z,75
2016-11-06T10:18:24.919Z,75
2016-11-06T10:19:05.450Z,75
2016-11-06T10:19:45.983Z,85
2016-11-06T10:20:26.531Z,90
2016-11-06T10:21:07.036Z,95
2016-11-06T10:21:47.549Z,100
2016-11-06T10:22:28.044Z,105
2016-11-06T10:23:08.583Z,120
2016-11-06T10:23:49.108Z,125
2016-11-06T10:24:29.634Z,125